Shanghai Express — DPCK — position and weather

sailwx.info

Track history (hours):
 
Tides and Currents Weather Stations Pressure Air Temp Water Temp Dewpoint Dewpoint Depression Visibility Wind Speed Wind Dir Waves Ship Positions

Shanghai Express

Last reported at 2016-May-26 17:25 UTC. Time now 2016-May-26 18:25 UTC.
Position N 01°16' E 103°51'.

Length 320.6 m; beam 42.8 m; draft 14.5 m.

Type: Ship. MMSI: 211367460.

Date/timePositionNaut miles runAvg speedWind from/ knotsBaromVisibWave heightAir tempDewpointWater temp
2016-May-26 17:25N 01°16' E 103°51'0 0.0
2016-May-26 16:29N 01°16' E 103°51'0 0.0
2016-May-26 15:30N 01°16' E 103°51'0 0.0
2016-May-26 14:24N 01°16' E 103°51'0 0.0
2016-May-26 13:23N 01°16' E 103°51'0 0.0
2016-May-26 12:17N 01°16' E 103°51'0 0.0
2016-May-26 11:32N 01°16' E 103°51'0 0.0
2016-May-26 10:31N 01°16' E 103°51'0 0.0
2016-May-26 09:28N 01°16' E 103°51'0 0.0
2016-May-26 08:33N 01°16' E 103°51'0 0.0
2016-May-26 07:24N 01°16' E 103°51'0 0.2
2016-May-26 06:29N 01°16' E 103°51'4 4.7
2016-May-26 05:33N 01°14' E 103°54'10 9.8
2016-May-26 04:33N 01°16' E 104°04'  
2016-May-20 12:08N 01°16' E 104°15'1016.7
2016-May-20 11:33N 01°15' E 104°05'1313.3
2016-May-20 10:33N 01°14' E 103°52'2 0.4
2016-May-20 06:17N 01°16' E 103°51'0 0.0
2016-May-19 22:10N 01°16' E 103°51'0 0.0
2016-May-19 21:16N 01°16' E 103°51'0 0.0
2016-May-19 19:03N 01°16' E 103°51'0 0.0
2016-May-19 18:27N 01°16' E 103°51'0 0.0
2016-May-19 17:26N 01°16' E 103°51'0 0.0
2016-May-19 16:33N 01°16' E 103°51'0 0.0
2016-May-19 15:32N 01°16' E 103°51'0 0.0
2016-May-19 13:32N 01°16' E 103°51'2 2.2
2016-May-19 12:33N 01°14' E 103°53'7 6.9
2016-May-19 11:33N 01°09' E 103°48'1211.4
2016-May-19 10:29N 01°03' E 103°37'8316.9
2016-May-19 05:33N 01°47' E 102°26'2317.0
2016-May-19 04:13N 01°60' E 102°07'  
Track history (hours):
 
Tides and Currents Weather Stations Pressure Air Temp Water Temp Dewpoint Dewpoint Depression Visibility Wind Speed Wind Dir Waves Ship Positions

Shanghai Express

Last reported at 2016-May-26 17:25 UTC. Time now 2016-May-26 18:25 UTC.
Position N 01°16' E 103°51'.

Length 320.6 m; beam 42.8 m; draft 14.5 m.

Type: Ship. MMSI: 211367460.

Date/timePositionNaut miles runAvg speedWind from/ knotsBaromVisibWave heightAir tempDewpointWater temp
2016-May-26 17:25N 01°16' E 103°51'0 0.0
2016-May-26 16:29N 01°16' E 103°51'0 0.0
2016-May-26 15:30N 01°16' E 103°51'0 0.0
2016-May-26 14:24N 01°16' E 103°51'0 0.0
2016-May-26 13:23N 01°16' E 103°51'0 0.0
2016-May-26 12:17N 01°16' E 103°51'0 0.0
2016-May-26 11:32N 01°16' E 103°51'0 0.0
2016-May-26 10:31N 01°16' E 103°51'0 0.0
2016-May-26 09:28N 01°16' E 103°51'0 0.0
2016-May-26 08:33N 01°16' E 103°51'0 0.0
2016-May-26 07:24N 01°16' E 103°51'0 0.2
2016-May-26 06:29N 01°16' E 103°51'4 4.7
2016-May-26 05:33N 01°14' E 103°54'10 9.8
2016-May-26 04:33N 01°16' E 104°04'  
2016-May-20 12:08N 01°16' E 104°15'1016.7
2016-May-20 11:33N 01°15' E 104°05'1313.3
2016-May-20 10:33N 01°14' E 103°52'2 0.4
2016-May-20 06:17N 01°16' E 103°51'0 0.0
2016-May-19 22:10N 01°16' E 103°51'0 0.0
2016-May-19 21:16N 01°16' E 103°51'0 0.0
2016-May-19 19:03N 01°16' E 103°51'0 0.0
2016-May-19 18:27N 01°16' E 103°51'0 0.0
2016-May-19 17:26N 01°16' E 103°51'0 0.0
2016-May-19 16:33N 01°16' E 103°51'0 0.0
2016-May-19 15:32N 01°16' E 103°51'0 0.0
2016-May-19 13:32N 01°16' E 103°51'2 2.2
2016-May-19 12:33N 01°14' E 103°53'7 6.9
2016-May-19 11:33N 01°09' E 103°48'1211.4
2016-May-19 10:29N 01°03' E 103°37'8316.9
2016-May-19 05:33N 01°47' E 102°26'2317.0
2016-May-19 04:13N 01°60' E 102°07'  

Dump ship's entire track history